createdAt,value
2022-10-13T00:00:48.964Z,17.08
2022-10-13T00:03:16.559Z,14.50
2022-10-13T00:05:48.434Z,14.50
2022-10-13T00:08:19.768Z,16.92
2022-10-13T00:10:47.985Z,19.67
2022-10-13T00:13:15.659Z,22.77
2022-10-13T00:15:45.215Z,22.00
2022-10-13T00:18:12.155Z,23.17
2022-10-13T00:20:49.743Z,19.52
2022-10-13T00:23:17.066Z,24.15
2022-10-13T00:25:45.881Z,22.70
2022-10-13T00:28:13.526Z,21.42
2022-10-13T00:30:40.868Z,24.27
2022-10-13T00:33:08.859Z,20.65
2022-10-13T00:35:41.217Z,23.25
2022-10-13T00:38:07.964Z,18.80
2022-10-13T00:40:34.468Z,19.90
2022-10-13T00:43:00.977Z,21.67
2022-10-13T00:45:32.044Z,21.17
2022-10-13T00:48:01.771Z,17.85
2022-10-13T00:50:37.603Z,12.55
2022-10-13T00:53:05.848Z,20.05
2022-10-13T00:55:35.005Z,13.50
2022-10-13T00:58:05.672Z,18.95
2022-10-13T01:00:33.868Z,18.85
2022-10-13T01:03:04.034Z,15.07
2022-10-13T01:05:31.156Z,14.50
2022-10-13T01:07:59.457Z,16.52
2022-10-13T01:10:51.958Z,18.48
2022-10-13T01:13:21.367Z,20.00
2022-10-13T01:15:58.380Z,20.00
2022-10-13T01:18:45.119Z,13.18
2022-10-13T01:21:17.704Z,15.40
2022-10-13T01:24:15.352Z,24.60
2022-10-13T01:27:16.165Z,18.88
2022-10-13T01:30:04.914Z,18.60
2022-10-13T01:32:58.335Z,12.63
2022-10-13T01:35:41.668Z,10.65
2022-10-13T01:38:27.886Z,17.10
2022-10-13T01:41:16.330Z,14.18
2022-10-13T01:43:56.284Z,17.40
2022-10-13T01:46:28.701Z,12.73
2022-10-13T01:48:58.196Z,13.93
2022-10-13T01:51:27.019Z,15.65
2022-10-13T01:53:53.745Z,13.15
2022-10-13T01:56:20.535Z,12.93
2022-10-13T01:58:49.874Z,13.57
2022-10-13T02:01:47.591Z,18.73
2022-10-13T02:04:25.968Z,15.63
2022-10-13T02:07:11.362Z,16.38
2022-10-13T02:10:09.533Z,14.57
2022-10-13T02:12:57.946Z,14.65
2022-10-13T02:15:33.010Z,14.65
2022-10-13T02:18:02.022Z,15.50
2022-10-13T02:20:28.582Z,16.65
2022-10-13T02:23:01.245Z,16.92
2022-10-13T02:25:28.807Z,20.83
2022-10-13T02:27:57.871Z,14.40
2022-10-13T02:30:28.664Z,20.05
2022-10-13T02:32:55.288Z,15.68
2022-10-13T02:35:21.949Z,16.48
2022-10-13T02:37:48.447Z,14.43
2022-10-13T02:40:15.123Z,12.20
2022-10-13T02:42:41.669Z,16.55
2022-10-13T02:45:09.003Z,17.20
2022-10-13T02:47:35.577Z,15.05
2022-10-13T02:50:02.446Z,19.35
2022-10-13T02:52:28.999Z,15.77
2022-10-13T02:54:55.519Z,17.10
2022-10-13T02:57:22.584Z,26.30
2022-10-13T02:59:49.157Z,13.82
2022-10-13T03:02:15.916Z,19.35
2022-10-13T03:04:42.405Z,13.02
2022-10-13T03:07:08.947Z,13.32
2022-10-13T03:09:36.076Z,18.05
2022-10-13T03:12:02.617Z,12.43
2022-10-13T03:14:29.104Z,20.15
2022-10-13T03:16:55.574Z,16.48
2022-10-13T03:19:22.141Z,14.65
2022-10-13T03:21:49.467Z,16.08
2022-10-13T03:24:15.985Z,21.98
2022-10-13T03:26:42.474Z,20.02
2022-10-13T03:29:15.906Z,15.82
2022-10-13T03:31:42.584Z,21.52
2022-10-13T03:34:10.441Z,13.95
2022-10-13T03:36:36.959Z,16.58
2022-10-13T03:39:03.867Z,16.13
2022-10-13T03:41:30.397Z,17.92
2022-10-13T03:43:56.908Z,17.58
2022-10-13T03:46:26.484Z,15.70
2022-10-13T03:48:53.034Z,18.02
2022-10-13T03:51:20.881Z,16.63
2022-10-13T03:53:48.873Z,15.35
2022-10-13T03:56:18.595Z,14.40
2022-10-13T03:58:45.165Z,14.07
2022-10-13T04:01:13.791Z,25.27
2022-10-13T04:03:40.583Z,13.85
2022-10-13T04:06:07.207Z,16.17
2022-10-13T04:08:34.363Z,17.15
2022-10-13T04:11:03.445Z,13.65
2022-10-13T04:13:30.182Z,12.00
2022-10-13T04:15:56.663Z,12.27
2022-10-13T04:18:23.191Z,11.55
2022-10-13T04:20:50.170Z,13.68
2022-10-13T04:23:16.649Z,14.00
2022-10-13T04:25:43.163Z,14.15
2022-10-13T04:28:11.394Z,22.35
2022-10-13T04:30:38.077Z,24.88
2022-10-13T04:33:05.316Z,20.67
2022-10-13T04:35:32.109Z,21.20
2022-10-13T04:37:58.708Z,16.17
2022-10-13T04:40:26.379Z,20.30
2022-10-13T04:42:53.193Z,29.00
2022-10-13T04:45:19.835Z,24.48
2022-10-13T04:47:46.382Z,24.02
2022-10-13T04:50:12.943Z,25.95
2022-10-13T04:52:39.479Z,26.48
2022-10-13T04:55:06.573Z,21.80
2022-10-13T04:57:33.333Z,18.42
2022-10-13T04:59:59.892Z,17.27
2022-10-13T05:02:26.458Z,19.38
2022-10-13T05:04:52.953Z,20.73
2022-10-13T05:07:19.471Z,20.02
2022-10-13T05:09:46.425Z,16.60
2022-10-13T05:12:13.059Z,26.63
2022-10-13T05:14:39.552Z,20.08
2022-10-13T05:17:06.041Z,25.95
2022-10-13T05:19:32.743Z,22.50
2022-10-13T05:21:59.283Z,17.60
2022-10-13T05:24:36.540Z,22.63
2022-10-13T05:27:05.598Z,22.67
2022-10-13T05:29:32.354Z,23.50
2022-10-13T05:31:58.849Z,14.18
2022-10-13T05:34:25.490Z,25.40
2022-10-13T05:36:52.233Z,23.65
2022-10-13T05:39:19.083Z,21.20
2022-10-13T05:41:45.663Z,21.33
2022-10-13T05:44:12.167Z,23.20
2022-10-13T05:46:38.674Z,20.35
2022-10-13T05:49:05.228Z,23.10
2022-10-13T05:51:38.974Z,18.95
2022-10-13T05:54:30.907Z,20.95
2022-10-13T05:57:05.731Z,18.75
2022-10-13T05:59:39.700Z,20.63
2022-10-13T06:02:09.581Z,19.63
2022-10-13T06:04:39.780Z,19.92
2022-10-13T06:07:08.058Z,21.67
2022-10-13T06:09:37.993Z,20.05
2022-10-13T06:12:05.877Z,17.80
2022-10-13T06:14:32.405Z,22.00
2022-10-13T06:16:59.088Z,16.40
2022-10-13T06:19:25.816Z,16.15
2022-10-13T06:21:52.382Z,12.82
2022-10-13T06:24:19.038Z,16.80
2022-10-13T06:26:46.171Z,18.50
2022-10-13T06:29:12.732Z,15.48
2022-10-13T06:31:39.263Z,20.35
2022-10-13T06:34:05.925Z,22.38
2022-10-13T06:36:32.409Z,18.00
2022-10-13T06:38:58.914Z,17.45
2022-10-13T06:41:25.513Z,23.60
2022-10-13T06:43:52.126Z,23.95
2022-10-13T06:46:18.794Z,22.20
2022-10-13T06:48:45.436Z,21.52
2022-10-13T06:51:12.737Z,16.73
2022-10-13T06:53:39.478Z,17.65
2022-10-13T06:56:07.238Z,17.08
2022-10-13T06:58:37.816Z,18.67
2022-10-13T07:01:05.465Z,17.67
2022-10-13T07:03:32.255Z,18.02
2022-10-13T07:06:03.874Z,17.48
2022-10-13T07:08:31.519Z,14.88
2022-10-13T07:10:58.649Z,18.73
2022-10-13T07:13:25.341Z,17.65
2022-10-13T07:15:51.904Z,16.63
2022-10-13T07:18:18.454Z,20.25
2022-10-13T07:20:44.930Z,14.77
2022-10-13T07:23:11.428Z,17.77
2022-10-13T07:25:38.010Z,21.15
2022-10-13T07:28:04.564Z,16.45
2022-10-13T07:30:31.101Z,13.45
2022-10-13T07:32:57.588Z,15.63
2022-10-13T07:35:29.659Z,22.98
2022-10-13T07:37:57.519Z,60.97
2022-10-13T07:40:24.371Z,31.88
2022-10-13T07:42:51.078Z,24.70
2022-10-13T07:45:17.828Z,24.65
2022-10-13T07:47:44.368Z,26.38
2022-10-13T07:50:11.785Z,29.30
2022-10-13T07:52:38.312Z,30.15
2022-10-13T07:55:05.599Z,30.77
2022-10-13T07:57:32.574Z,24.00
2022-10-13T07:59:59.085Z,24.92
2022-10-13T08:02:26.316Z,21.02
2022-10-13T08:04:52.916Z,25.40
2022-10-13T08:07:19.675Z,23.35
2022-10-13T08:09:46.372Z,28.25
2022-10-13T08:12:12.949Z,28.85
2022-10-13T08:14:39.548Z,29.10
2022-10-13T08:17:06.205Z,25.48
2022-10-13T08:19:32.739Z,23.17
2022-10-13T08:22:00.113Z,20.08
2022-10-13T08:24:27.597Z,21.23
2022-10-13T08:26:54.360Z,24.63
2022-10-13T08:29:22.576Z,24.92
2022-10-13T08:31:51.227Z,27.40
2022-10-13T08:34:17.965Z,21.58
2022-10-13T08:36:44.566Z,27.63
2022-10-13T08:39:11.100Z,21.38
2022-10-13T08:41:41.424Z,23.15
2022-10-13T08:47:46.842Z,23.52
2022-10-13T08:50:21.508Z,20.60
2022-10-13T08:52:53.681Z,26.02
2022-10-13T08:55:35.154Z,26.45
2022-10-13T08:58:06.454Z,23.35
2022-10-13T09:00:32.977Z,19.30
2022-10-13T09:03:19.924Z,25.65
2022-10-13T09:05:57.082Z,20.00
2022-10-13T09:08:26.979Z,19.45
2022-10-13T09:10:53.914Z,24.45
2022-10-13T09:13:20.685Z,22.13
2022-10-13T09:15:53.049Z,18.25
2022-10-13T09:18:28.895Z,21.70
2022-10-13T09:21:23.488Z,21.60
2022-10-13T09:23:54.196Z,27.52
2022-10-13T09:26:25.411Z,27.90
2022-10-13T09:28:52.475Z,23.65
2022-10-13T09:31:25.262Z,19.70
2022-10-13T09:34:11.995Z,25.98
2022-10-13T09:36:38.621Z,18.98
2022-10-13T09:39:08.848Z,22.58
2022-10-13T09:41:36.249Z,19.52
2022-10-13T09:44:12.596Z,21.25
2022-10-13T09:46:52.886Z,16.77
2022-10-13T09:49:41.460Z,14.43
2022-10-13T09:52:18.182Z,19.15
2022-10-13T09:55:03.208Z,14.43
2022-10-13T09:57:45.850Z,17.40
2022-10-13T10:00:23.941Z,16.37
2022-10-13T10:03:12.318Z,21.40
2022-10-13T10:05:50.710Z,21.23
2022-10-13T10:09:02.079Z,21.65
2022-10-13T10:11:33.682Z,18.08
2022-10-13T10:14:26.350Z,22.77
2022-10-13T10:17:11.280Z,18.27
2022-10-13T10:19:52.970Z,18.30
2022-10-13T10:22:34.815Z,18.67
2022-10-13T10:25:19.680Z,17.63
2022-10-13T10:28:03.988Z,18.75
2022-10-13T10:30:34.979Z,21.55
2022-10-13T10:33:12.130Z,21.98
2022-10-13T10:35:38.955Z,16.75
2022-10-13T10:38:39.152Z,19.63
2022-10-13T10:41:34.741Z,19.92
2022-10-13T10:44:08.725Z,18.58
2022-10-13T10:46:40.487Z,21.02
2022-10-13T10:49:31.063Z,18.55
2022-10-13T10:52:00.070Z,24.50
2022-10-13T10:54:40.830Z,23.92
2022-10-13T10:57:20.307Z,31.17
2022-10-13T10:59:51.467Z,24.10
2022-10-13T11:02:24.613Z,22.55
2022-10-13T11:04:55.443Z,22.23
2022-10-13T11:07:24.736Z,16.40
2022-10-13T11:09:54.963Z,18.52
2022-10-13T11:12:21.877Z,16.60
2022-10-13T11:15:02.323Z,20.13
2022-10-13T11:17:34.144Z,24.50
2022-10-13T11:20:00.954Z,16.55
2022-10-13T11:22:31.139Z,18.02
2022-10-13T11:25:04.464Z,16.75
2022-10-13T11:30:01.454Z,17.63
2022-10-13T11:32:28.237Z,18.13
2022-10-13T11:35:01.019Z,19.38
2022-10-13T11:38:05.860Z,19.60
2022-10-13T11:40:44.958Z,18.48
2022-10-13T11:43:42.270Z,16.13
2022-10-13T11:46:14.654Z,20.60
2022-10-13T11:49:18.549Z,16.13
2022-10-13T11:52:12.373Z,17.02
2022-10-13T11:57:20.024Z,17.75
2022-10-13T11:59:49.982Z,17.55
2022-10-13T12:02:19.147Z,20.50
2022-10-13T12:05:04.303Z,16.55
2022-10-13T12:07:37.123Z,15.98
2022-10-13T12:10:07.450Z,17.65
2022-10-13T12:12:34.497Z,17.83
2022-10-13T12:15:04.376Z,22.42
2022-10-13T12:17:40.982Z,24.60
2022-10-13T12:20:29.639Z,19.73
2022-10-13T12:22:57.193Z,17.92
2022-10-13T12:25:30.033Z,18.52
2022-10-13T12:27:59.777Z,18.50
2022-10-13T12:30:36.997Z,21.55
2022-10-13T12:33:18.061Z,16.80
2022-10-13T12:35:44.770Z,20.38
2022-10-13T12:38:21.871Z,16.73
2022-10-13T12:40:50.065Z,19.25
2022-10-13T12:43:25.269Z,15.65
2022-10-13T12:45:52.125Z,17.10
2022-10-13T12:48:33.466Z,20.10
2022-10-13T12:51:19.946Z,16.20
2022-10-13T12:53:48.017Z,15.98
2022-10-13T12:56:27.636Z,19.40
2022-10-13T12:58:55.217Z,22.33
2022-10-13T13:01:28.350Z,18.98
2022-10-13T13:03:58.296Z,23.20
2022-10-13T13:06:36.935Z,21.90
2022-10-13T13:09:12.588Z,16.80
2022-10-13T13:11:39.427Z,20.83
2022-10-13T13:14:36.486Z,22.40
2022-10-13T13:20:24.947Z,19.92
2022-10-13T13:22:51.594Z,20.42
2022-10-13T13:25:18.339Z,17.40
2022-10-13T13:27:45.308Z,20.77
2022-10-13T13:30:13.657Z,21.00
2022-10-13T13:32:40.618Z,19.63
2022-10-13T13:35:08.018Z,16.42
2022-10-13T13:37:37.509Z,20.67
2022-10-13T13:40:05.930Z,16.83
2022-10-13T13:42:32.872Z,15.63
2022-10-13T13:44:59.426Z,16.25
2022-10-13T13:47:28.125Z,19.60
2022-10-13T13:49:56.648Z,16.50
2022-10-13T13:52:25.272Z,14.57
2022-10-13T13:54:52.645Z,20.27
2022-10-13T13:57:20.567Z,16.25
2022-10-13T13:59:47.636Z,15.45
2022-10-13T14:02:17.844Z,16.58
2022-10-13T14:04:44.841Z,20.25
2022-10-13T14:07:11.891Z,17.20
2022-10-13T14:09:39.103Z,23.17
2022-10-13T14:12:05.833Z,15.82
2022-10-13T14:14:32.602Z,19.02
2022-10-13T14:17:00.685Z,19.95
2022-10-13T14:19:27.625Z,20.65
2022-10-13T14:21:54.154Z,19.05
2022-10-13T14:24:21.122Z,16.13
2022-10-13T14:26:48.706Z,13.77
2022-10-13T14:29:15.977Z,16.23
2022-10-13T14:31:42.686Z,17.52
2022-10-13T14:34:09.840Z,15.77
2022-10-13T14:36:36.384Z,15.63
2022-10-13T14:39:03.056Z,12.90
2022-10-13T14:41:29.616Z,15.25
2022-10-13T14:43:57.237Z,16.65
2022-10-13T14:46:26.052Z,14.57
2022-10-13T14:48:52.765Z,16.27
2022-10-13T14:51:19.282Z,14.85
2022-10-13T14:53:45.985Z,15.15
2022-10-13T14:56:29.641Z,14.30
2022-10-13T14:59:01.034Z,13.57
2022-10-13T15:01:28.046Z,16.15
2022-10-13T15:03:55.221Z,17.85
2022-10-13T15:06:23.800Z,16.58
2022-10-13T15:08:51.081Z,14.15
2022-10-13T15:11:19.090Z,14.30
2022-10-13T15:13:45.968Z,14.80
2022-10-13T15:16:17.079Z,22.40
2022-10-13T15:18:44.273Z,14.82
2022-10-13T15:21:11.458Z,16.58
2022-10-13T15:23:38.012Z,17.02
2022-10-13T15:26:05.111Z,18.08
2022-10-13T15:28:40.473Z,21.58
2022-10-13T15:31:07.480Z,24.38
2022-10-13T15:33:34.612Z,19.23
2022-10-13T15:36:01.342Z,24.83
2022-10-13T15:38:28.348Z,23.25
2022-10-13T15:41:03.454Z,15.43
2022-10-13T15:43:31.314Z,20.75
2022-10-13T15:46:04.283Z,22.23
2022-10-13T15:48:31.907Z,25.08
2022-10-13T15:50:58.486Z,27.75
2022-10-13T15:53:25.476Z,40.33
2022-10-13T15:55:52.233Z,50.00
2022-10-13T15:58:19.237Z,24.85
2022-10-13T16:00:46.030Z,22.77
2022-10-13T16:03:15.629Z,26.40
2022-10-13T16:05:43.638Z,22.13
2022-10-13T16:08:10.887Z,20.30
2022-10-13T16:10:44.001Z,29.75
2022-10-13T16:13:14.964Z,20.33
2022-10-13T16:15:42.943Z,25.15
2022-10-13T16:18:09.607Z,23.35
2022-10-13T16:20:38.663Z,26.27
2022-10-13T16:23:05.481Z,29.20
2022-10-13T16:25:32.135Z,29.40
2022-10-13T16:27:59.492Z,25.02
2022-10-13T16:30:26.820Z,33.75
2022-10-13T16:32:55.082Z,34.17
2022-10-13T16:35:22.015Z,35.13
2022-10-13T16:37:48.577Z,27.20
2022-10-13T16:40:15.632Z,31.05
2022-10-13T16:42:43.370Z,37.33
2022-10-13T16:45:10.172Z,28.38
2022-10-13T16:47:36.759Z,26.40
2022-10-13T16:50:09.245Z,28.70
2022-10-13T16:52:37.123Z,22.30
2022-10-13T16:55:05.397Z,15.88
2022-10-13T16:57:32.749Z,17.85
2022-10-13T16:59:59.318Z,17.33
2022-10-13T17:02:25.903Z,20.52
2022-10-13T17:04:52.522Z,23.60
2022-10-13T17:07:19.244Z,27.35
2022-10-13T17:09:46.010Z,32.88
2022-10-13T17:12:12.593Z,34.15
2022-10-13T17:14:40.271Z,29.02
2022-10-13T17:17:06.955Z,32.05
2022-10-13T17:19:33.548Z,30.58
2022-10-13T17:22:00.199Z,29.85
2022-10-13T17:24:26.981Z,26.10
2022-10-13T17:26:53.505Z,29.98
2022-10-13T17:29:20.049Z,33.70
2022-10-13T17:31:46.762Z,24.20
2022-10-13T17:34:13.316Z,26.95
2022-10-13T17:36:39.839Z,31.90
2022-10-13T17:39:08.517Z,31.13
2022-10-13T17:41:35.437Z,25.88
2022-10-13T17:44:02.163Z,34.03
2022-10-13T17:46:36.717Z,33.60
2022-10-13T17:49:04.551Z,31.52
2022-10-13T17:51:31.184Z,27.88
2022-10-13T17:53:59.727Z,25.00
2022-10-13T17:56:27.185Z,22.60
2022-10-13T17:58:54.069Z,31.27
2022-10-13T18:01:25.761Z,32.70
2022-10-13T18:03:56.066Z,31.42
2022-10-13T18:06:23.003Z,32.95
2022-10-13T18:08:52.767Z,33.42
2022-10-13T18:11:21.232Z,33.40
2022-10-13T18:13:47.982Z,30.95
2022-10-13T18:16:20.146Z,35.95
2022-10-13T18:18:47.259Z,30.02
2022-10-13T18:21:16.414Z,30.58
2022-10-13T18:23:43.171Z,27.48
2022-10-13T18:26:12.504Z,27.10
2022-10-13T18:28:40.668Z,29.52
2022-10-13T18:31:18.930Z,27.48
2022-10-13T18:33:46.683Z,21.98
2022-10-13T18:36:13.815Z,21.67
2022-10-13T18:38:40.385Z,24.52
2022-10-13T18:41:06.947Z,26.30
2022-10-13T18:43:33.484Z,29.52
2022-10-13T18:46:01.527Z,19.98
2022-10-13T18:48:28.464Z,16.20
2022-10-13T18:50:55.046Z,16.67
2022-10-13T18:53:21.808Z,25.27
2022-10-13T18:55:48.424Z,28.15
2022-10-13T18:58:14.975Z,30.92
2022-10-13T19:00:41.588Z,31.17
2022-10-13T19:03:08.332Z,28.90
2022-10-13T19:05:39.283Z,27.15
2022-10-13T19:08:09.366Z,27.50
2022-10-13T19:10:36.946Z,28.50
2022-10-13T19:13:03.801Z,27.77
2022-10-13T19:15:30.334Z,21.23
2022-10-13T19:17:56.819Z,32.78
2022-10-13T19:20:23.467Z,28.10
2022-10-13T19:22:49.991Z,34.95
2022-10-13T19:25:16.695Z,32.83
2022-10-13T19:27:43.213Z,33.00
2022-10-13T19:30:10.638Z,24.23
2022-10-13T19:32:39.979Z,29.10
2022-10-13T19:35:06.658Z,20.05
2022-10-13T19:37:33.223Z,22.23
2022-10-13T19:39:59.965Z,27.30
2022-10-13T19:42:26.518Z,32.17
2022-10-13T19:44:53.032Z,32.42
2022-10-13T19:47:19.877Z,35.83
2022-10-13T19:49:47.281Z,39.78
2022-10-13T19:52:13.774Z,35.55
2022-10-13T19:54:40.251Z,34.80
2022-10-13T19:57:06.935Z,34.95
2022-10-13T19:59:33.415Z,33.33
2022-10-13T20:01:59.941Z,31.58
2022-10-13T20:04:26.546Z,31.73
2022-10-13T20:06:53.052Z,39.63
2022-10-13T20:09:20.440Z,36.47
2022-10-13T20:11:49.607Z,32.90
2022-10-13T20:14:17.633Z,43.08
2022-10-13T20:16:44.735Z,36.70
2022-10-13T20:19:13.956Z,41.08
2022-10-13T20:21:40.540Z,36.75
2022-10-13T20:24:07.180Z,34.97
2022-10-13T20:26:33.876Z,35.38
2022-10-13T20:29:00.959Z,29.90
2022-10-13T20:31:27.557Z,22.80
2022-10-13T20:33:58.495Z,21.30
2022-10-13T20:36:28.290Z,19.50
2022-10-13T20:38:55.244Z,22.73
2022-10-13T20:41:24.649Z,21.92
2022-10-13T20:43:52.642Z,19.30
2022-10-13T20:46:20.393Z,23.55
2022-10-13T20:51:35.199Z,20.90
2022-10-13T20:54:01.720Z,25.88
2022-10-13T20:56:28.291Z,24.20
2022-10-13T20:58:54.790Z,27.45
2022-10-13T21:01:23.018Z,25.05
2022-10-13T21:03:53.216Z,22.00
2022-10-13T21:06:20.194Z,22.00
2022-10-13T21:08:47.482Z,24.00
2022-10-13T21:11:16.255Z,24.23
2022-10-13T21:13:43.932Z,22.65
2022-10-13T21:16:16.560Z,19.98
2022-10-13T21:18:48.950Z,17.10
2022-10-13T21:21:18.855Z,21.08
2022-10-13T21:23:46.131Z,28.27
2022-10-13T21:26:14.375Z,25.75
2022-10-13T21:28:44.380Z,25.73
2022-10-13T21:31:12.869Z,30.23
2022-10-13T21:33:41.289Z,30.70
2022-10-13T21:36:09.245Z,27.95
2022-10-13T21:38:36.519Z,36.10
2022-10-13T21:41:07.788Z,30.08
2022-10-13T21:43:34.854Z,32.97
2022-10-13T21:46:11.520Z,28.52
2022-10-13T21:48:38.303Z,31.05
2022-10-13T21:51:29.689Z,30.23
2022-10-13T21:53:58.514Z,28.67
2022-10-13T21:56:26.295Z,28.10
2022-10-13T21:58:53.868Z,26.98
2022-10-13T22:01:21.003Z,26.38
2022-10-13T22:03:48.294Z,31.90
2022-10-13T22:06:19.308Z,27.38
2022-10-13T22:08:48.786Z,27.05
2022-10-13T22:11:16.804Z,22.17
2022-10-13T22:13:43.392Z,28.80
2022-10-13T22:16:21.543Z,19.55
2022-10-13T22:18:50.796Z,19.27
2022-10-13T22:21:20.744Z,28.58
2022-10-13T22:23:47.622Z,22.40
2022-10-13T22:26:16.438Z,23.58
2022-10-13T22:28:43.919Z,27.67
2022-10-13T22:31:12.880Z,32.83
2022-10-13T22:33:41.049Z,33.50
2022-10-13T22:36:16.347Z,31.83
2022-10-13T22:38:43.887Z,31.52
2022-10-13T22:41:10.527Z,34.95
2022-10-13T22:43:37.607Z,30.65
2022-10-13T22:46:05.007Z,19.23
2022-10-13T22:48:35.792Z,28.00
2022-10-13T22:51:06.267Z,23.23
2022-10-13T22:53:33.563Z,26.55
2022-10-13T22:56:00.767Z,19.35
2022-10-13T22:58:27.287Z,22.00
2022-10-13T23:00:53.845Z,23.25
2022-10-13T23:03:20.425Z,20.02
2022-10-13T23:05:48.459Z,28.38
2022-10-13T23:08:14.975Z,22.88
2022-10-13T23:10:41.535Z,19.92
2022-10-13T23:13:08.064Z,27.02
2022-10-13T23:15:34.611Z,26.88
2022-10-13T23:18:01.150Z,29.73
2022-10-13T23:20:27.711Z,26.40
2022-10-13T23:22:54.204Z,19.80
2022-10-13T23:25:20.765Z,24.50
2022-10-13T23:27:47.302Z,25.98
2022-10-13T23:30:14.009Z,23.67
2022-10-13T23:32:40.577Z,26.80
2022-10-13T23:35:07.341Z,31.83
2022-10-13T23:37:33.961Z,20.13
2022-10-13T23:40:00.503Z,26.10
2022-10-13T23:42:27.005Z,19.92
2022-10-13T23:44:53.534Z,35.67
2022-10-13T23:47:20.410Z,24.27
2022-10-13T23:49:47.193Z,26.75
2022-10-13T23:52:13.714Z,41.80
2022-10-13T23:54:40.215Z,36.92
2022-10-13T23:57:06.740Z,19.35
2022-10-13T23:59:33.475Z,25.27
